createdAt,value
2018-02-23T00:00:39.553Z,38.79
2018-02-23T00:01:39.568Z,38.81
2018-02-23T00:02:39.562Z,38.76
2018-02-23T00:03:39.585Z,38.72
2018-02-23T00:04:39.563Z,38.77
2018-02-23T00:05:39.557Z,38.83
2018-02-23T00:06:39.567Z,38.78
2018-02-23T00:07:39.641Z,38.81
2018-02-23T00:08:39.581Z,38.77
2018-02-23T00:09:39.550Z,38.82
2018-02-23T00:10:39.572Z,38.79
2018-02-23T00:11:39.537Z,38.79
2018-02-23T00:12:39.564Z,38.8
2018-02-23T00:13:39.584Z,38.76
2018-02-23T00:14:39.561Z,38.85
2018-02-23T00:15:39.553Z,38.8
2018-02-23T00:16:39.940Z,38.74
2018-02-23T00:17:39.611Z,38.76
2018-02-23T00:18:39.699Z,38.83
2018-02-23T00:19:39.539Z,38.72
2018-02-23T00:20:39.567Z,38.79
2018-02-23T00:21:39.537Z,38.72
2018-02-23T00:22:39.535Z,38.74
2018-02-23T00:23:39.543Z,38.81
2018-02-23T00:24:39.544Z,38.81
2018-02-23T00:25:39.540Z,38.76
2018-02-23T00:26:39.539Z,38.77
2018-02-23T00:27:39.547Z,38.71
2018-02-23T00:28:39.564Z,38.76
2018-02-23T00:29:39.558Z,38.81
2018-02-23T00:30:39.533Z,38.84
2018-02-23T00:31:39.527Z,38.78
2018-02-23T00:32:39.543Z,38.8
2018-02-23T00:33:39.563Z,38.74
2018-02-23T00:34:39.537Z,38.75
2018-02-23T00:35:39.552Z,38.73
2018-02-23T00:36:39.581Z,38.81
2018-02-23T00:37:39.523Z,38.8
2018-02-23T00:38:39.553Z,38.75
2018-02-23T00:39:39.533Z,38.74
2018-02-23T00:40:39.531Z,38.78
2018-02-23T00:41:39.612Z,38.69
2018-02-23T00:42:39.607Z,38.78
2018-02-23T00:43:39.562Z,38.77
2018-02-23T00:44:39.521Z,38.73
2018-02-23T00:45:39.547Z,38.72
2018-02-23T00:46:39.533Z,38.74
2018-02-23T00:47:39.544Z,38.77
2018-02-23T00:48:39.548Z,38.73
2018-02-23T00:49:39.537Z,38.78
2018-02-23T00:50:39.523Z,38.74
2018-02-23T00:51:39.567Z,38.75
2018-02-23T00:52:39.545Z,38.79
2018-02-23T00:53:39.541Z,38.78
2018-02-23T00:54:39.517Z,38.67
2018-02-23T00:55:39.523Z,38.63
2018-02-23T00:56:39.512Z,38.74
2018-02-23T00:57:39.541Z,38.74
2018-02-23T00:58:39.528Z,38.74
2018-02-23T00:59:39.582Z,38.75
2018-02-23T01:00:39.540Z,38.74
2018-02-23T01:01:39.546Z,38.74
2018-02-23T01:02:39.532Z,38.77
2018-02-23T01:03:39.539Z,38.67
2018-02-23T01:04:39.525Z,38.77
2018-02-23T01:05:39.607Z,38.76
2018-02-23T01:06:39.617Z,38.79
2018-02-23T01:07:39.544Z,38.69
2018-02-23T01:08:39.514Z,38.73
2018-02-23T01:09:39.541Z,38.76
2018-02-23T01:10:39.533Z,38.72
2018-02-23T01:11:39.547Z,38.72
2018-02-23T01:12:39.501Z,38.72
2018-02-23T01:13:39.521Z,38.81
2018-02-23T01:14:39.532Z,38.75
2018-02-23T01:15:39.549Z,38.73
2018-02-23T01:16:39.561Z,38.72
2018-02-23T01:17:39.506Z,38.72
2018-02-23T01:18:39.530Z,38.82
2018-02-23T01:19:39.530Z,38.77
2018-02-23T01:20:39.517Z,38.7
2018-02-23T01:21:39.550Z,38.74
2018-02-23T01:22:39.613Z,38.8
2018-02-23T01:23:39.530Z,38.8
2018-02-23T01:24:39.511Z,38.75
2018-02-23T01:25:39.500Z,38.84
2018-02-23T01:26:39.553Z,38.84
2018-02-23T01:27:39.518Z,38.8
2018-02-23T01:28:39.536Z,38.77
2018-02-23T01:29:39.514Z,38.77
2018-02-23T01:30:39.635Z,38.75
2018-02-23T01:31:39.530Z,38.73
2018-02-23T01:32:39.503Z,38.8
2018-02-23T01:33:39.511Z,38.81
2018-02-23T01:34:39.509Z,38.72
2018-02-23T01:35:39.768Z,38.73
2018-02-23T01:36:39.526Z,38.71
2018-02-23T01:37:39.523Z,38.8
2018-02-23T01:38:39.634Z,38.78
2018-02-23T01:39:39.501Z,38.81
2018-02-23T01:40:39.529Z,38.76
2018-02-23T01:41:39.572Z,38.76
2018-02-23T01:42:39.514Z,38.77
2018-02-23T01:43:39.512Z,38.86
2018-02-23T01:44:39.522Z,38.82
2018-02-23T01:45:39.542Z,38.69
2018-02-23T01:46:39.624Z,38.78
2018-02-23T01:47:39.498Z,38.73
2018-02-23T01:48:39.515Z,38.73
2018-02-23T01:49:39.519Z,38.72
2018-02-23T01:50:39.505Z,38.79
2018-02-23T01:51:39.576Z,38.69
2018-02-23T01:52:39.514Z,38.73
2018-02-23T01:53:39.514Z,38.72
2018-02-23T01:54:39.600Z,38.8
2018-02-23T01:55:39.507Z,38.73
2018-02-23T01:56:39.514Z,38.74
2018-02-23T01:57:39.506Z,38.74
2018-02-23T01:58:39.501Z,38.79
2018-02-23T01:59:39.580Z,38.7
2018-02-23T02:00:39.526Z,38.72
2018-02-23T02:01:39.511Z,38.74
2018-02-23T02:02:39.513Z,38.73
2018-02-23T02:03:39.534Z,38.75
2018-02-23T02:04:39.504Z,38.72
2018-02-23T02:05:39.521Z,38.72
2018-02-23T02:06:39.546Z,38.72
2018-02-23T02:07:39.517Z,38.71
2018-02-23T02:08:39.515Z,38.79
2018-02-23T02:09:39.504Z,38.78
2018-02-23T02:10:39.512Z,38.75
2018-02-23T02:11:39.509Z,38.75
2018-02-23T02:12:39.509Z,38.71
2018-02-23T02:13:39.494Z,38.77
2018-02-23T02:14:39.494Z,38.79
2018-02-23T02:15:40.238Z,38.79
2018-02-23T02:16:39.516Z,38.72
2018-02-23T02:17:39.496Z,38.81
2018-02-23T02:18:39.509Z,38.76
2018-02-23T02:19:39.495Z,38.69
2018-02-23T02:20:39.513Z,38.8
2018-02-23T02:21:39.548Z,38.71
2018-02-23T02:22:39.493Z,38.76
2018-02-23T02:23:39.509Z,38.72
2018-02-23T02:24:39.503Z,38.76
2018-02-23T02:25:39.514Z,38.69
2018-02-23T02:26:39.491Z,38.81
2018-02-23T02:27:39.497Z,38.8
2018-02-23T02:28:39.500Z,38.76
2018-02-23T02:29:39.503Z,38.69
2018-02-23T02:30:39.508Z,38.67
2018-02-23T02:31:39.554Z,38.68
2018-02-23T02:32:39.508Z,38.69
2018-02-23T02:33:39.547Z,38.76
2018-02-23T02:34:39.499Z,38.78
2018-02-23T02:35:39.544Z,38.72
2018-02-23T02:36:39.560Z,38.77
2018-02-23T02:37:39.528Z,38.66
2018-02-23T02:38:39.487Z,38.77
2018-02-23T02:39:39.509Z,38.73
2018-02-23T02:40:39.531Z,38.73
2018-02-23T02:41:39.517Z,38.79
2018-02-23T02:42:39.537Z,38.75
2018-02-23T02:43:39.595Z,38.7
2018-02-23T02:44:39.498Z,38.71
2018-02-23T02:45:39.506Z,38.77
2018-02-23T02:46:42.957Z,38.71
2018-02-23T02:47:39.514Z,38.79
2018-02-23T02:48:39.503Z,38.76
2018-02-23T02:49:39.498Z,38.72
2018-02-23T02:50:39.499Z,38.75
2018-02-23T02:51:39.496Z,38.68
2018-02-23T02:52:39.521Z,38.74
2018-02-23T02:53:39.502Z,38.75
2018-02-23T02:54:39.525Z,38.79
2018-02-23T02:55:39.493Z,38.66
2018-02-23T02:56:39.769Z,38.72
2018-02-23T02:57:39.490Z,38.82
2018-02-23T02:58:39.543Z,38.79
2018-02-23T02:59:39.509Z,38.79
2018-02-23T03:00:39.502Z,38.68
2018-02-23T03:01:39.518Z,38.68
2018-02-23T03:02:39.531Z,38.74
2018-02-23T03:03:39.497Z,38.74
2018-02-23T03:04:39.500Z,38.71
2018-02-23T03:05:39.506Z,38.7
2018-02-23T03:06:39.632Z,38.72
2018-02-23T03:07:39.522Z,38.72
2018-02-23T03:08:39.503Z,38.63
2018-02-23T03:09:39.504Z,38.67
2018-02-23T03:10:39.525Z,38.73
2018-02-23T03:11:39.503Z,38.74
2018-02-23T03:12:41.478Z,38.71
2018-02-23T03:13:39.483Z,38.72
2018-02-23T03:14:39.511Z,38.72
2018-02-23T03:15:39.504Z,38.71
2018-02-23T03:16:39.473Z,38.68
2018-02-23T03:17:39.503Z,38.68
2018-02-23T03:18:39.486Z,38.65
2018-02-23T03:19:39.484Z,38.61
2018-02-23T03:20:39.472Z,38.66
2018-02-23T03:21:39.486Z,38.66
2018-02-23T03:22:39.479Z,38.73
2018-02-23T03:23:39.472Z,38.73
2018-02-23T03:24:39.542Z,38.7
2018-02-23T03:25:39.460Z,38.73
2018-02-23T03:26:39.500Z,38.69
2018-02-23T03:27:39.493Z,38.74
2018-02-23T03:28:39.751Z,38.74
2018-02-23T03:29:39.516Z,38.68
2018-02-23T03:30:39.513Z,38.58
2018-02-23T03:31:39.501Z,38.73
2018-02-23T03:32:39.488Z,38.66
2018-02-23T03:33:39.495Z,38.77
2018-02-23T03:34:41.928Z,38.75
2018-02-23T03:35:39.467Z,38.74
2018-02-23T03:36:39.480Z,38.77
2018-02-23T03:37:39.495Z,38.73
2018-02-23T03:38:39.536Z,38.72
2018-02-23T03:39:39.482Z,38.67
2018-02-23T03:40:39.478Z,38.7
2018-02-23T03:41:39.476Z,38.65
2018-02-23T03:42:39.499Z,38.69
2018-02-23T03:43:39.479Z,38.65
2018-02-23T03:44:39.462Z,38.67
2018-02-23T03:45:39.470Z,38.68
2018-02-23T03:46:39.466Z,38.67
2018-02-23T03:47:39.457Z,38.67
2018-02-23T03:48:39.477Z,38.7
2018-02-23T03:49:39.492Z,38.71
2018-02-23T03:50:39.490Z,38.72
2018-02-23T03:51:39.474Z,38.71
2018-02-23T03:52:39.466Z,38.76
2018-02-23T03:53:39.474Z,38.69
2018-02-23T03:54:39.473Z,38.74
2018-02-23T03:55:39.476Z,38.75
2018-02-23T03:56:39.862Z,38.72
2018-02-23T03:57:39.469Z,38.72
2018-02-23T03:58:39.478Z,38.73
2018-02-23T03:59:39.480Z,38.68
2018-02-23T04:00:39.464Z,38.71
2018-02-23T04:01:39.521Z,38.73
2018-02-23T04:02:39.482Z,38.73
2018-02-23T04:03:39.471Z,38.77
2018-02-23T04:04:39.452Z,38.74
2018-02-23T04:05:39.484Z,38.74
2018-02-23T04:06:39.459Z,38.61
2018-02-23T04:07:39.473Z,38.75
2018-02-23T04:08:39.474Z,38.73
2018-02-23T04:09:39.471Z,38.63
2018-02-23T04:10:39.512Z,38.8
2018-02-23T04:11:39.472Z,38.7
2018-02-23T04:12:39.454Z,38.7
2018-02-23T04:13:39.458Z,38.71
2018-02-23T04:14:39.461Z,38.72
2018-02-23T04:15:39.464Z,38.71
2018-02-23T04:16:39.449Z,38.71
2018-02-23T04:17:39.474Z,38.76
2018-02-23T04:18:39.487Z,38.64
2018-02-23T04:19:39.462Z,38.64
2018-02-23T04:20:39.458Z,38.69
2018-02-23T04:21:39.472Z,38.68
2018-02-23T04:22:39.477Z,38.64
2018-02-23T04:23:39.467Z,38.72
2018-02-23T04:24:39.470Z,38.77
2018-02-23T04:25:39.474Z,38.7
2018-02-23T04:26:39.469Z,38.7
2018-02-23T04:27:39.469Z,38.7
2018-02-23T04:28:39.457Z,38.69
2018-02-23T04:29:39.512Z,38.65
2018-02-23T04:30:39.466Z,38.68
2018-02-23T04:31:39.453Z,38.7
2018-02-23T04:32:39.451Z,38.72
2018-02-23T04:33:39.439Z,38.77
2018-02-23T04:34:39.467Z,38.68
2018-02-23T04:35:39.458Z,38.68
2018-02-23T04:36:39.454Z,38.78
2018-02-23T04:37:39.457Z,38.72
2018-02-23T04:38:39.452Z,38.74
2018-02-23T04:39:39.456Z,38.68
2018-02-23T04:40:39.457Z,38.72
2018-02-23T04:41:39.456Z,38.67
2018-02-23T04:42:39.447Z,38.68
2018-02-23T04:43:39.500Z,38.72
2018-02-23T04:44:39.443Z,38.7
2018-02-23T04:45:39.442Z,38.65
2018-02-23T04:46:39.457Z,38.74
2018-02-23T04:47:39.451Z,38.7
2018-02-23T04:48:39.447Z,38.71
2018-02-23T04:49:39.447Z,38.76
2018-02-23T04:50:39.453Z,38.66
2018-02-23T04:51:39.447Z,38.7
2018-02-23T04:52:39.487Z,38.71
2018-02-23T04:53:39.468Z,38.72
2018-02-23T04:54:39.446Z,38.76
2018-02-23T04:55:39.456Z,38.78
2018-02-23T04:56:39.456Z,38.78
2018-02-23T04:57:39.441Z,38.78
2018-02-23T04:58:39.446Z,38.71
2018-02-23T04:59:39.471Z,38.77
2018-02-23T05:00:39.447Z,38.7
2018-02-23T05:01:39.444Z,38.8
2018-02-23T05:02:39.443Z,38.82
2018-02-23T05:03:39.507Z,38.72
2018-02-23T05:04:39.474Z,38.68
2018-02-23T05:05:39.454Z,38.8
2018-02-23T05:06:39.438Z,38.91
2018-02-23T05:07:39.534Z,38.95
2018-02-23T05:08:39.475Z,38.83
2018-02-23T05:09:39.460Z,38.91
2018-02-23T05:10:39.451Z,39.03
2018-02-23T05:11:39.428Z,38.98
2018-02-23T05:12:39.441Z,39.1
2018-02-23T05:13:39.451Z,39.13
2018-02-23T05:14:39.469Z,39.21
2018-02-23T05:15:39.448Z,39.21
2018-02-23T05:16:39.443Z,39.08
2018-02-23T05:17:39.440Z,39.33
2018-02-23T05:18:39.442Z,39.35
2018-02-23T05:19:39.468Z,39.39
2018-02-23T05:20:39.439Z,39.41
2018-02-23T05:21:39.471Z,39.55
2018-02-23T05:22:39.454Z,39.48
2018-02-23T05:23:39.456Z,39.54
2018-02-23T05:24:39.430Z,39.45
2018-02-23T05:25:39.442Z,39.53
2018-02-23T05:26:39.449Z,39.48
2018-02-23T05:27:39.468Z,39.42
2018-02-23T05:28:39.440Z,39.53
2018-02-23T05:29:39.427Z,39.37
2018-02-23T05:30:39.466Z,39.44
2018-02-23T05:31:39.434Z,39.36
2018-02-23T05:32:39.467Z,39.37
2018-02-23T05:33:39.441Z,39.3
2018-02-23T05:34:39.435Z,39.27
2018-02-23T05:35:39.452Z,39.28
2018-02-23T05:36:39.427Z,39.2
2018-02-23T05:37:39.443Z,39.24
2018-02-23T05:38:39.420Z,39.31
2018-02-23T05:39:39.439Z,39.24
2018-02-23T05:40:39.468Z,39.26
2018-02-23T05:41:39.599Z,39.26
2018-02-23T05:42:39.797Z,39.21
2018-02-23T05:43:39.426Z,39.26
2018-02-23T05:44:39.428Z,39.24
2018-02-23T05:45:39.425Z,39.21
2018-02-23T05:46:39.421Z,39.23
2018-02-23T05:47:39.427Z,39.17
2018-02-23T05:48:39.441Z,39.26
2018-02-23T05:49:39.436Z,39.18
2018-02-23T05:50:39.715Z,39.22
2018-02-23T05:51:39.432Z,39.21
2018-02-23T05:52:39.434Z,39.21
2018-02-23T05:53:39.413Z,39.17
2018-02-23T05:54:39.419Z,39.14
2018-02-23T05:55:39.438Z,39.23
2018-02-23T05:56:39.433Z,39.21
2018-02-23T05:57:39.432Z,39.22
2018-02-23T05:58:39.427Z,39.23
2018-02-23T05:59:39.428Z,39.17
2018-02-23T06:00:39.446Z,39.2
2018-02-23T06:01:39.425Z,39.16
2018-02-23T06:02:39.441Z,39.28
2018-02-23T06:03:39.437Z,38.76
2018-02-23T06:04:39.423Z,38.83
2018-02-23T06:05:39.438Z,38.76
2018-02-23T06:06:39.436Z,38.74
2018-02-23T06:07:39.427Z,38.82
2018-02-23T06:08:39.430Z,38.74
2018-02-23T06:09:39.452Z,38.81
2018-02-23T06:10:39.429Z,38.81
2018-02-23T06:11:39.414Z,38.86
2018-02-23T06:12:39.706Z,38.96
2018-02-23T06:13:39.450Z,38.91
2018-02-23T06:14:39.423Z,38.94
2018-02-23T06:15:39.424Z,39.01
2018-02-23T06:16:39.419Z,39.02
2018-02-23T06:17:39.445Z,38.96
2018-02-23T06:18:39.418Z,39.02
2018-02-23T06:19:39.422Z,39
2018-02-23T06:20:39.417Z,39
2018-02-23T06:21:39.424Z,39.04
2018-02-23T06:22:39.441Z,38.93
2018-02-23T06:23:39.404Z,38.95
2018-02-23T06:24:39.419Z,38.98
2018-02-23T06:25:39.427Z,38.95
2018-02-23T06:26:39.433Z,39.02
2018-02-23T06:27:39.429Z,39.01
2018-02-23T06:28:39.418Z,39.01
2018-02-23T06:29:39.406Z,39
2018-02-23T06:30:39.424Z,38.97
2018-02-23T06:31:39.436Z,38.98
2018-02-23T06:32:39.415Z,38.93
2018-02-23T06:33:39.453Z,38.91
2018-02-23T06:34:39.428Z,39
2018-02-23T06:35:39.416Z,38.95
2018-02-23T06:36:39.411Z,38.98
2018-02-23T06:37:39.405Z,38.92
2018-02-23T06:38:39.425Z,38.91
2018-02-23T06:39:39.444Z,38.87
2018-02-23T06:40:39.414Z,38.82
2018-02-23T06:41:39.430Z,38.94
2018-02-23T06:42:39.403Z,38.89
2018-02-23T06:43:39.435Z,38.9
2018-02-23T06:44:39.609Z,38.92
2018-02-23T06:45:39.409Z,38.92
2018-02-23T06:46:39.427Z,38.89
2018-02-23T06:47:39.413Z,38.92
2018-02-23T06:48:39.434Z,38.89
2018-02-23T06:49:39.427Z,38.93
2018-02-23T06:50:39.396Z,38.9
2018-02-23T06:51:39.436Z,38.84
2018-02-23T06:52:39.455Z,38.94
2018-02-23T06:53:39.420Z,38.87
2018-02-23T06:54:39.403Z,38.94
2018-02-23T06:55:39.397Z,38.94
2018-02-23T06:56:39.431Z,38.93
2018-02-23T06:57:39.405Z,38.85
2018-02-23T06:58:39.424Z,38.92
2018-02-23T06:59:39.423Z,38.94
2018-02-23T07:00:39.395Z,38.88
2018-02-23T07:01:39.405Z,38.87
2018-02-23T07:02:39.409Z,38.76
2018-02-23T07:03:39.420Z,38.85
2018-02-23T07:04:39.533Z,38.88
2018-02-23T07:05:39.400Z,38.79
2018-02-23T07:06:39.408Z,38.84
2018-02-23T07:07:39.420Z,38.77
2018-02-23T07:08:39.501Z,38.74
2018-02-23T07:09:39.457Z,38.8
2018-02-23T07:10:39.440Z,38.89
2018-02-23T07:11:39.418Z,38.79
2018-02-23T07:12:41.624Z,38.82
2018-02-23T07:13:39.422Z,38.79
2018-02-23T07:14:39.417Z,38.81
2018-02-23T07:15:39.417Z,38.72
2018-02-23T07:16:39.425Z,38.8
2018-02-23T07:17:39.421Z,38.84
2018-02-23T07:18:39.434Z,38.81
2018-02-23T07:19:39.431Z,38.78
2018-02-23T07:20:39.425Z,38.85
2018-02-23T07:21:39.431Z,38.87
2018-02-23T07:22:41.879Z,38.8
2018-02-23T07:23:39.428Z,38.85
2018-02-23T07:24:42.284Z,38.93
2018-02-23T07:25:39.449Z,38.85
2018-02-23T07:26:41.873Z,38.83
2018-02-23T07:27:39.443Z,38.97
2018-02-23T07:28:39.425Z,38.84
2018-02-23T07:29:42.020Z,38.82
2018-02-23T07:30:41.886Z,38.89
2018-02-23T07:31:39.484Z,38.96
2018-02-23T07:32:41.867Z,38.77
2018-02-23T07:33:41.534Z,38.8
2018-02-23T07:34:41.896Z,38.87
2018-02-23T07:35:42.280Z,38.82
2018-02-23T07:36:41.638Z,38.77
2018-02-23T07:37:41.774Z,38.83
2018-02-23T07:38:42.004Z,38.77
2018-02-23T07:39:41.615Z,38.82
2018-02-23T07:40:42.034Z,38.89
2018-02-23T07:41:39.439Z,38.83
2018-02-23T07:42:42.005Z,38.78
2018-02-23T07:43:39.445Z,38.89
2018-02-23T07:44:42.020Z,38.8
2018-02-23T07:45:42.035Z,38.89
2018-02-23T07:46:41.864Z,38.78
2018-02-23T07:47:42.020Z,38.79
2018-02-23T07:48:42.007Z,38.65
2018-02-23T07:49:42.008Z,38.75
2018-02-23T07:50:42.025Z,38.77
2018-02-23T07:51:39.445Z,38.62
2018-02-23T07:52:42.268Z,38.8
2018-02-23T07:53:42.009Z,38.75
2018-02-23T07:54:42.009Z,38.63
2018-02-23T07:55:39.987Z,38.78
2018-02-23T07:56:39.448Z,38.58
2018-02-23T07:57:42.016Z,38.68
2018-02-23T07:58:39.441Z,38.79
2018-02-23T07:59:42.018Z,38.64
2018-02-23T08:00:41.510Z,38.65
2018-02-23T08:01:42.045Z,38.66
2018-02-23T08:02:39.458Z,37.93
2018-02-23T08:03:41.538Z,38.3
2018-02-23T08:04:39.441Z,38.29
2018-02-23T08:05:42.009Z,38.34
2018-02-23T08:06:42.036Z,38.37
2018-02-23T08:07:42.044Z,38.33
2018-02-23T08:08:42.019Z,38.39
2018-02-23T08:09:39.429Z,38.46
2018-02-23T08:10:39.980Z,38.46
2018-02-23T08:11:39.633Z,38.43
2018-02-23T08:12:41.536Z,38.46
2018-02-23T08:13:39.446Z,38.46
2018-02-23T08:14:39.547Z,38.62
2018-02-23T08:15:39.987Z,38.6
2018-02-23T08:16:39.442Z,38.51
2018-02-23T08:17:42.001Z,38.54
2018-02-23T08:18:39.423Z,38.46
2018-02-23T08:19:41.746Z,38.51
2018-02-23T08:20:39.450Z,38.48
2018-02-23T08:21:39.455Z,38.56
2018-02-23T08:22:39.452Z,38.46
2018-02-23T08:23:39.480Z,38.51
2018-02-23T08:24:39.443Z,38.52
2018-02-23T08:25:39.448Z,38.51
2018-02-23T08:26:39.456Z,38.65
2018-02-23T08:27:39.484Z,38.44
2018-02-23T08:28:39.448Z,38.48
2018-02-23T08:29:39.461Z,38.52
2018-02-23T08:30:39.430Z,38.5
2018-02-23T08:31:39.473Z,38.52
2018-02-23T08:32:41.519Z,38.5
2018-02-23T08:33:40.002Z,38.43
2018-02-23T08:34:39.480Z,38.47
2018-02-23T08:35:39.436Z,38.39
2018-02-23T08:36:39.445Z,38.45
2018-02-23T08:37:39.479Z,38.45
2018-02-23T08:38:39.461Z,38.39
2018-02-23T08:39:39.475Z,38.45
2018-02-23T08:40:39.933Z,38.4
2018-02-23T08:41:39.928Z,38.48
2018-02-23T08:42:39.410Z,38.48
2018-02-23T08:43:40.031Z,38.4
2018-02-23T08:44:40.016Z,38.41
2018-02-23T08:45:39.417Z,38.4
2018-02-23T08:46:39.628Z,38.42
2018-02-23T08:47:39.481Z,38.42
2018-02-23T08:48:39.415Z,38.44
2018-02-23T08:49:39.446Z,38.39
2018-02-23T08:50:39.417Z,38.46
2018-02-23T08:51:39.452Z,38.5
2018-02-23T08:52:39.490Z,38.44
2018-02-23T08:53:40.019Z,38.45
2018-02-23T08:54:39.417Z,38.41
2018-02-23T08:55:40.008Z,38.53
2018-02-23T08:56:39.430Z,38.39
2018-02-23T08:57:39.448Z,38.49
2018-02-23T08:58:39.450Z,38.53
2018-02-23T08:59:40.025Z,38.49
2018-02-23T09:00:39.604Z,38.46
2018-02-23T09:01:39.421Z,38.57
2018-02-23T09:02:39.443Z,38.51
2018-02-23T09:03:39.460Z,38.54
2018-02-23T09:04:39.438Z,38.5
2018-02-23T09:05:39.440Z,38.43
2018-02-23T09:06:39.931Z,38.51
2018-02-23T09:07:39.467Z,38.52
2018-02-23T09:08:39.447Z,38.47
2018-02-23T09:09:42.103Z,38.41
2018-02-23T09:10:39.475Z,38.47
2018-02-23T09:11:39.615Z,38.48
2018-02-23T09:12:39.465Z,38.48
2018-02-23T09:13:39.436Z,38.44
2018-02-23T09:14:39.596Z,38.57
2018-02-23T09:15:39.925Z,38.57
2018-02-23T09:16:39.438Z,38.52
2018-02-23T09:17:39.439Z,38.51
2018-02-23T09:18:40.103Z,38.48
2018-02-23T09:19:39.422Z,38.55
2018-02-23T09:20:39.439Z,38.48
2018-02-23T09:21:39.413Z,38.56
2018-02-23T09:22:39.933Z,38.58
2018-02-23T09:23:39.537Z,38.44
2018-02-23T09:24:39.842Z,38.52
2018-02-23T09:25:39.427Z,38.49
2018-02-23T09:26:39.440Z,38.47
2018-02-23T09:27:39.417Z,38.53
2018-02-23T09:28:39.450Z,38.48
2018-02-23T09:29:39.422Z,38.37
2018-02-23T09:30:39.421Z,38.4
2018-02-23T09:31:39.431Z,38.51
2018-02-23T09:32:39.426Z,38.48
2018-02-23T09:33:39.966Z,38.55
2018-02-23T09:34:39.915Z,38.47
2018-02-23T09:35:39.931Z,38.4
2018-02-23T09:36:39.427Z,38.44
2018-02-23T09:37:39.432Z,38.51
2018-02-23T09:38:39.433Z,38.43
2018-02-23T09:39:39.434Z,38.44
2018-02-23T09:40:39.431Z,38.43
2018-02-23T09:41:39.401Z,38.51
2018-02-23T09:42:39.406Z,38.43
2018-02-23T09:43:39.499Z,38.38
2018-02-23T09:44:40.000Z,38.4
2018-02-23T09:45:39.443Z,38.39
2018-02-23T09:46:39.973Z,38.48
2018-02-23T09:47:39.968Z,38.39
2018-02-23T09:48:39.422Z,38.37
2018-02-23T09:49:39.436Z,38.42
2018-02-23T09:50:39.623Z,38.38
2018-02-23T09:51:39.441Z,38.4
2018-02-23T09:52:39.419Z,38.44
2018-02-23T09:53:39.436Z,38.47
2018-02-23T09:54:39.930Z,38.33
2018-02-23T09:55:39.460Z,38.39
2018-02-23T09:56:39.741Z,38.45
2018-02-23T09:57:39.656Z,38.39
2018-02-23T09:58:39.888Z,38.41
2018-02-23T09:59:39.421Z,38.35
2018-02-23T10:00:40.009Z,38.38
2018-02-23T10:01:39.417Z,38.33
2018-02-23T10:02:39.429Z,38.45
2018-02-23T10:03:39.426Z,38.31
2018-02-23T10:04:39.409Z,38.42
2018-02-23T10:05:41.624Z,38.43
2018-02-23T10:06:39.397Z,38.41
2018-02-23T10:07:39.404Z,38.43
2018-02-23T10:08:39.398Z,38.38
2018-02-23T10:09:39.418Z,38.33
2018-02-23T10:10:40.027Z,38.46
2018-02-23T10:11:39.426Z,38.34
2018-02-23T10:12:39.428Z,38.43
2018-02-23T10:13:40.010Z,38.28
2018-02-23T10:14:39.428Z,38.34
2018-02-23T10:15:39.433Z,38.39
2018-02-23T10:16:39.901Z,38.36
2018-02-23T10:17:39.409Z,38.28
2018-02-23T10:18:39.407Z,38.39
2018-02-23T10:19:39.980Z,38.29
2018-02-23T10:20:39.414Z,38.38
2018-02-23T10:21:39.414Z,38.28
2018-02-23T10:22:39.431Z,38.5
2018-02-23T10:23:39.412Z,38.32
2018-02-23T10:24:39.410Z,38.29
2018-02-23T10:25:39.415Z,38.34
2018-02-23T10:26:39.582Z,38.3
2018-02-23T10:27:39.421Z,38.26
2018-02-23T10:28:39.866Z,38.36
2018-02-23T10:29:39.896Z,38.34
2018-02-23T10:30:39.972Z,38.37
2018-02-23T10:31:39.473Z,38.41
2018-02-23T10:32:39.891Z,38.29
2018-02-23T10:33:39.423Z,38.25
2018-02-23T10:34:39.422Z,38.34
2018-02-23T10:35:39.368Z,38.33
2018-02-23T10:36:40.003Z,38.36
2018-02-23T10:37:39.480Z,38.25
2018-02-23T10:38:39.442Z,38.37
2018-02-23T10:39:39.957Z,38.39
2018-02-23T10:40:39.902Z,38.41
2018-02-23T10:41:39.426Z,38.38
2018-02-23T10:42:39.399Z,38.38
2018-02-23T10:43:39.451Z,38.39
2018-02-23T10:44:39.429Z,38.37
2018-02-23T10:45:39.423Z,38.32
2018-02-23T10:46:39.395Z,38.41
2018-02-23T10:47:39.406Z,38.39
2018-02-23T10:48:39.433Z,38.32
2018-02-23T10:49:39.426Z,38.38
2018-02-23T10:50:39.380Z,38.33
2018-02-23T10:51:39.406Z,38.5
2018-02-23T10:52:39.621Z,38.34
2018-02-23T10:53:39.407Z,38.4
2018-02-23T10:54:39.406Z,38.38
2018-02-23T10:55:39.455Z,38.27
2018-02-23T10:56:39.409Z,38.41
2018-02-23T10:57:39.429Z,38.42
2018-02-23T10:58:39.415Z,38.45
2018-02-23T10:59:39.923Z,38.39
2018-02-23T11:00:39.414Z,38.37
2018-02-23T11:01:39.390Z,38.41
2018-02-23T11:02:39.887Z,38.53
2018-02-23T11:03:39.412Z,38.28
2018-02-23T11:04:39.417Z,38.41
2018-02-23T11:05:39.415Z,38.38
2018-02-23T11:06:39.415Z,38.41
2018-02-23T11:07:39.989Z,38.47
2018-02-23T11:08:39.896Z,38.45
2018-02-23T11:09:39.517Z,38.41
2018-02-23T11:10:39.502Z,38.36
2018-02-23T11:11:39.446Z,38.39
2018-02-23T11:12:39.395Z,38.43
2018-02-23T11:13:39.400Z,38.41
2018-02-23T11:14:39.422Z,38.45
2018-02-23T11:15:39.399Z,38.47
2018-02-23T11:16:39.392Z,38.49
2018-02-23T11:17:39.963Z,38.37
2018-02-23T11:18:39.454Z,38.37
2018-02-23T11:19:39.613Z,38.37
2018-02-23T11:20:39.401Z,38.39
2018-02-23T11:21:39.922Z,38.33
2018-02-23T11:22:39.909Z,38.39
2018-02-23T11:23:39.405Z,38.37
2018-02-23T11:24:39.436Z,38.36
2018-02-23T11:25:39.433Z,38.36
2018-02-23T11:26:39.427Z,38.4
2018-02-23T11:27:39.354Z,38.39
2018-02-23T11:28:39.358Z,38.36
2018-02-23T11:29:39.943Z,38.51
2018-02-23T11:30:39.408Z,38.44
2018-02-23T11:31:39.412Z,38.41
2018-02-23T11:32:39.411Z,38.42
2018-02-23T11:33:39.924Z,38.37
2018-02-23T11:34:39.513Z,38.45
2018-02-23T11:35:39.907Z,38.42
2018-02-23T11:36:39.411Z,38.41
2018-02-23T11:37:39.619Z,38.37
2018-02-23T11:38:39.973Z,38.4
2018-02-23T11:39:39.408Z,38.42
2018-02-23T11:40:39.449Z,38.37
2018-02-23T11:41:39.367Z,38.41
2018-02-23T11:42:39.412Z,38.33
2018-02-23T11:43:39.373Z,38.49
2018-02-23T11:44:39.371Z,38.32
2018-02-23T11:45:39.419Z,38.34
2018-02-23T11:46:39.416Z,38.45
2018-02-23T11:47:39.365Z,38.37
2018-02-23T11:48:39.417Z,38.4
2018-02-23T11:49:40.317Z,38.3
2018-02-23T11:50:39.446Z,38.41
2018-02-23T11:51:39.350Z,38.41
2018-02-23T11:52:39.417Z,38.37
2018-02-23T11:53:39.335Z,38.45
2018-02-23T11:54:39.383Z,38.48
2018-02-23T11:55:39.957Z,38.45
2018-02-23T11:56:39.372Z,38.46
2018-02-23T11:57:39.359Z,38.44
2018-02-23T11:58:39.381Z,38.44
2018-02-23T11:59:39.340Z,38.39
2018-02-23T12:00:39.352Z,38.36
2018-02-23T12:01:39.358Z,38.42
2018-02-23T12:02:39.346Z,38.5
2018-02-23T12:03:39.346Z,38.35
2018-02-23T12:04:40.260Z,38.5
2018-02-23T12:05:41.952Z,38.45
2018-02-23T12:06:39.364Z,38.34
2018-02-23T12:07:39.363Z,38.52
2018-02-23T12:08:39.374Z,38.41
2018-02-23T12:09:39.362Z,38.34
2018-02-23T12:10:39.378Z,38.36
2018-02-23T12:11:39.367Z,38.3
2018-02-23T12:12:39.345Z,38.26
2018-02-23T12:13:39.341Z,38.42
2018-02-23T12:14:39.344Z,38.39
2018-02-23T12:15:39.391Z,38.38
2018-02-23T12:16:39.354Z,38.34
2018-02-23T12:17:39.366Z,38.41
2018-02-23T12:18:39.375Z,38.37
2018-02-23T12:19:40.224Z,38.35
2018-02-23T12:20:39.633Z,38.35
2018-02-23T12:21:39.354Z,38.43
2018-02-23T12:22:39.363Z,38.39
2018-02-23T12:23:39.334Z,38.42
2018-02-23T12:24:39.351Z,38.38
2018-02-23T12:25:39.448Z,38.4
2018-02-23T12:26:42.459Z,38.35
2018-02-23T12:27:39.384Z,38.44
2018-02-23T12:28:39.318Z,38.5
2018-02-23T12:29:39.342Z,38.34
2018-02-23T12:30:39.363Z,38.31
2018-02-23T12:31:39.394Z,38.35
2018-02-23T12:32:39.358Z,38.42
2018-02-23T12:33:39.352Z,38.41
2018-02-23T12:34:39.385Z,38.39
2018-02-23T12:35:39.364Z,38.38
2018-02-23T12:36:39.343Z,38.43
2018-02-23T12:37:39.370Z,38.36
2018-02-23T12:38:39.335Z,38.43
2018-02-23T12:39:39.396Z,38.4
2018-02-23T12:40:39.342Z,38.44
2018-02-23T12:41:39.328Z,38.38
2018-02-23T12:42:39.360Z,38.46
2018-02-23T12:43:39.367Z,38.38
2018-02-23T12:44:39.770Z,38.46
2018-02-23T12:45:39.306Z,38.34
2018-02-23T12:46:39.344Z,38.41
2018-02-23T12:47:39.394Z,38.4
2018-02-23T12:48:39.356Z,38.34
2018-02-23T12:49:39.366Z,38.35
2018-02-23T12:50:39.326Z,38.46
2018-02-23T12:51:39.334Z,38.39
2018-02-23T12:52:39.325Z,38.38
2018-02-23T12:53:39.403Z,38.34
2018-02-23T12:54:39.312Z,38.35
2018-02-23T12:55:39.331Z,38.32